Augusta, Missouri
Current Conditions -  °F | °C
As of 12:35 PM on Saturday 20 Dec 2014 (Local Time) from KFYG Reporting Station
Overcast Overcast  
Wind Chill: 38°   Ceiling: 3200
Heat Index: 41°   Visibility: 8mi
Dew Point: 36°   Wind: 5mph
Humidity: 81%   Direction: 130°SE
Pressure: 30.22"   Gusts: NA
Location:  38.57°N, 90.88°W
Report Text: KFYG 201835Z AUTO 13004KT 8SM OVC032 05/02 A3022 RMK AO2
Loading
Personal Weather Stations






























Interactive Weather Map New forecast layout! Learn more

10-Day Weather Forecast

Advertisements
Track Severe Weather on mobile